Marcelandia, Brazil
Current Conditions -  °F | °C
As of 6:00 PM on Friday 19 Dec 2014 (Local Time) from SBAT Reporting Station
Light Rain Light Rain  
Wind Chill: 75°   Ceiling: 9000
Heat Index: 75°   Visibility: 5mi
Dew Point: 73°   Wind: 0mph
Humidity: 94%   Direction: NA
Pressure: 29.8"   Gusts: NA
Location:  11.09°S, 54.45°W
Report Text: SBAT 192100Z 00000KT 8000 -RA SCT017 BKN090 24/23 Q1009 RETS
Loading
Personal Weather Stations






























Interactive Weather Map New forecast layout! Learn more

10-Day Weather Forecast

Advertisements
Track Severe Weather on mobile